createdAt,value
2023-05-09T00:05:05.795Z,56.00
2023-05-09T00:15:12.341Z,56.00
2023-05-09T00:25:18.521Z,56.00
2023-05-09T00:35:24.027Z,54.00
2023-05-09T00:45:29.578Z,54.00
2023-05-09T00:55:34.618Z,54.00
2023-05-09T01:05:40.402Z,54.00
2023-05-09T01:15:46.453Z,54.00
2023-05-09T01:25:52.502Z,56.00
2023-05-09T01:35:58.488Z,54.00
2023-05-09T01:46:04.202Z,54.00
2023-05-09T01:56:09.965Z,52.00
2023-05-09T02:06:15.474Z,54.00
2023-05-09T02:16:21.079Z,58.00
2023-05-09T02:26:26.827Z,52.00
2023-05-09T02:36:32.773Z,50.00
2023-05-09T02:46:38.748Z,56.00
2023-05-09T02:56:44.319Z,54.00
2023-05-09T03:06:50.703Z,56.00
2023-05-09T03:16:56.038Z,54.00
2023-05-09T03:27:02.846Z,54.00
2023-05-09T03:37:08.648Z,54.00
2023-05-09T03:47:14.377Z,52.00
2023-05-09T03:57:19.673Z,58.00
2023-05-09T04:07:25.365Z,52.00
2023-05-09T04:17:30.734Z,46.00
2023-05-09T04:27:36.859Z,48.00
2023-05-09T04:37:42.723Z,60.00
2023-05-09T04:47:45.951Z,56.00
2023-05-09T04:57:48.419Z,56.00
2023-05-09T05:07:53.362Z,56.00
2023-05-09T05:17:58.801Z,56.00
2023-05-09T05:28:04.581Z,54.00
2023-05-09T05:38:09.983Z,52.00
2023-05-09T05:48:16.201Z,56.00
2023-05-09T05:58:21.782Z,52.00
2023-05-09T06:08:30.055Z,44.00
2023-05-09T06:18:37.903Z,42.00
2023-05-09T06:28:44.335Z,40.00
2023-05-09T06:38:50.314Z,42.00
2023-05-09T06:48:56.468Z,60.00
2023-05-09T06:59:02.082Z,58.00
2023-05-09T07:09:08.245Z,60.00
2023-05-09T07:19:14.004Z,62.00
2023-05-09T07:29:19.571Z,48.00
2023-05-09T07:40:44.924Z,48.00
2023-05-09T07:50:50.060Z,32.00
2023-05-09T08:00:55.896Z,48.00
2023-05-09T08:11:02.174Z,48.00
2023-05-09T08:21:10.581Z,50.00
2023-05-09T08:31:18.323Z,48.00
2023-05-09T08:41:25.045Z,50.00
2023-05-09T08:51:30.878Z,52.00
2023-05-09T09:01:36.698Z,50.00
2023-05-09T09:11:43.931Z,56.00
2023-05-09T09:21:51.443Z,60.00
2023-05-09T09:31:57.373Z,50.00
2023-05-09T09:42:03.656Z,54.00
2023-05-09T09:52:09.242Z,56.00
2023-05-09T10:02:15.016Z,62.00
2023-05-09T10:12:20.502Z,58.00
2023-05-09T10:22:25.668Z,60.00
2023-05-09T10:32:31.584Z,64.00
2023-05-09T10:42:37.518Z,58.00
2023-05-09T10:52:43.447Z,60.00
2023-05-09T11:02:49.511Z,60.00
2023-05-09T11:12:57.555Z,58.00
2023-05-09T11:23:03.489Z,62.00
2023-05-09T11:33:09.661Z,58.00
2023-05-09T11:43:15.462Z,62.00
2023-05-09T11:53:21.533Z,58.00
2023-05-09T12:03:27.319Z,62.00
2023-05-09T12:13:35.044Z,56.00
2023-05-09T12:23:40.871Z,58.00
2023-05-09T12:33:46.510Z,56.00
2023-05-09T12:43:52.353Z,60.00
2023-05-09T12:53:57.903Z,62.00
2023-05-09T13:04:03.999Z,56.00
2023-05-09T13:14:09.819Z,56.00
2023-05-09T13:24:15.357Z,58.00
2023-05-09T13:34:21.074Z,60.00
2023-05-09T13:44:26.949Z,56.00
2023-05-09T13:54:32.841Z,58.00
2023-05-09T14:04:38.793Z,60.00
2023-05-09T14:14:44.226Z,62.00
2023-05-09T14:24:51.243Z,58.00
2023-05-09T14:34:57.305Z,60.00
2023-05-09T14:45:03.219Z,60.00
2023-05-09T14:55:08.967Z,58.00
2023-05-09T15:05:14.811Z,60.00
2023-05-09T15:15:21.511Z,60.00
2023-05-09T15:25:27.363Z,62.00
2023-05-09T15:35:32.839Z,58.00
2023-05-09T15:45:38.818Z,60.00
2023-05-09T15:55:44.381Z,60.00
2023-05-09T16:05:50.039Z,60.00
2023-05-09T16:15:56.139Z,60.00
2023-05-09T16:26:01.911Z,58.00
2023-05-09T16:36:07.583Z,62.00
2023-05-09T16:46:13.263Z,60.00
2023-05-09T16:56:19.515Z,58.00
2023-05-09T17:06:25.484Z,60.00
2023-05-09T17:16:31.009Z,60.00
2023-05-09T17:26:36.768Z,60.00
2023-05-09T17:36:42.546Z,56.00
2023-05-09T17:46:48.278Z,64.00
2023-05-09T17:56:54.348Z,60.00
2023-05-09T18:07:00.353Z,60.00
2023-05-09T18:17:05.894Z,58.00
2023-05-09T18:27:12.033Z,62.00
2023-05-09T18:37:17.410Z,64.00
2023-05-09T18:47:22.947Z,64.00
2023-05-09T18:57:28.956Z,56.00
2023-05-09T19:07:34.525Z,58.00
2023-05-09T19:17:40.625Z,60.00
2023-05-09T19:27:48.136Z,56.00
2023-05-09T19:37:54.200Z,54.00
2023-05-09T19:47:59.451Z,60.00
2023-05-09T19:58:05.198Z,62.00
2023-05-09T20:08:10.583Z,54.00
2023-05-09T20:18:17.828Z,60.00
2023-05-09T20:28:23.718Z,58.00
2023-05-09T20:38:29.366Z,56.00
2023-05-09T20:48:35.466Z,42.00
2023-05-09T20:58:41.110Z,48.00
2023-05-09T21:08:47.223Z,42.00
2023-05-09T21:18:53.071Z,40.00
2023-05-09T21:28:58.392Z,44.00
2023-05-09T21:39:03.633Z,46.00
2023-05-09T21:49:09.263Z,48.00
2023-05-09T21:59:14.983Z,50.00
2023-05-09T22:09:20.550Z,44.00
2023-05-09T22:19:26.437Z,54.00
2023-05-09T22:29:32.267Z,42.00
2023-05-09T22:39:37.777Z,42.00
2023-05-09T22:49:44.577Z,40.00
2023-05-09T22:59:51.806Z,50.00
2023-05-09T23:09:57.419Z,50.00
2023-05-09T23:20:03.056Z,48.00
2023-05-09T23:30:08.641Z,48.00
2023-05-09T23:40:14.337Z,48.00
2023-05-09T23:50:20.171Z,46.00
